Time;durP1;ratioP1;P1;durP2;ratioP2;P2;SDS_P1;SDS_P2;PMS_P1;PMS_P2;Temp;Humidity;BMP_temperature;BMP_pressure;BME280_temperature;BME280_humidity;BME280_pressure;Samples;Min_cycle;Max_cycle;Signal;HPM_P1;HPM_P2
2021/09/25 00:01:32;;;;;;;12.20;5.40;;;12.60;8.10;;;;;;4434065;28;656702;-69
2021/09/25 00:04:19;;;;;;;14.10;5.70;;;12.60;4.00;;;;;;4418040;28;657515;-68
2021/09/25 00:07:10;;;;;;;15.90;6.03;;;12.60;1.00;;;;;;4428484;28;656360;-69
2021/09/25 00:09:57;;;;;;;18.67;5.80;;;12.60;9.00;;;;;;4405797;28;656842;-69
2021/09/25 00:12:45;;;;;;;11.25;5.90;;;12.50;19.30;;;;;;4408254;28;657276;-68
2021/09/25 00:15:33;;;;;;;13.17;5.80;;;12.50;19.60;;;;;;4425470;28;657439;-69
2021/09/25 00:18:20;;;;;;;14.53;6.10;;;12.50;27.40;;;;;;4431787;28;658883;-69
2021/09/25 00:21:08;;;;;;;13.67;6.23;;;12.50;26.80;;;;;;4410175;28;657674;-69
2021/09/25 00:23:57;;;;;;;13.63;5.97;;;12.50;29.60;;;;;;4442447;28;657996;-69
2021/09/25 00:26:44;;;;;;;12.27;5.93;;;12.50;35.50;;;;;;4405416;28;657564;-69
2021/09/25 00:29:32;;;;;;;13.70;5.40;;;12.50;45.00;;;;;;4434675;28;657857;-69
2021/09/25 00:32:19;;;;;;;11.43;5.97;;;12.50;56.60;;;;;;4414571;28;658172;-69
2021/09/25 00:35:08;;;;;;;14.83;5.60;;;12.50;54.20;;;;;;4427390;28;658112;-69
2021/09/25 00:37:55;;;;;;;13.77;5.43;;;12.50;49.20;;;;;;4403357;28;659120;-69
2021/09/25 00:40:45;;;;;;;14.63;5.90;;;12.50;54.20;;;;;;4428846;28;657944;-69
2021/09/25 00:43:33;;;;;;;13.20;5.87;;;12.50;58.70;;;;;;4446273;28;656952;-69
2021/09/25 00:46:21;;;;;;;10.37;5.17;;;12.50;58.30;;;;;;4411958;28;657691;-69
2021/09/25 00:49:08;;;;;;;12.10;5.30;;;12.50;72.80;;;;;;4412070;28;657573;-69
2021/09/25 00:51:56;;;;;;;13.70;5.60;;;12.50;68.40;;;;;;4434158;28;657948;-69
2021/09/25 00:54:43;;;;;;;13.50;5.23;;;12.50;68.20;;;;;;4430565;28;657539;-69
2021/09/25 00:57:32;;;;;;;11.63;5.73;;;12.50;53.20;;;;;;4449155;28;658019;-69
2021/09/25 01:00:20;;;;;;;14.53;5.67;;;12.40;65.70;;;;;;4413094;28;657980;-69
2021/09/25 01:03:07;;;;;;;15.87;6.30;;;12.40;64.30;;;;;;4443107;28;657356;-69
2021/09/25 01:05:55;;;;;;;15.10;6.00;;;12.40;61.70;;;;;;4415589;28;658116;-69
2021/09/25 01:08:43;;;;;;;13.20;5.87;;;12.40;40.40;;;;;;4432043;28;657498;-69
2021/09/25 01:11:30;;;;;;;14.43;6.50;;;12.40;6.70;;;;;;4441589;28;658298;-69
2021/09/25 01:14:19;;;;;;;13.83;6.80;;;12.40;8.00;;;;;;4417788;28;656613;-69
2021/09/25 01:17:07;;;;;;;15.50;5.80;;;12.40;1.00;;;;;;4435422;28;656447;-69
2021/09/25 01:19:55;;;;;;;15.43;8.20;;;12.40;1.00;;;;;;4416096;28;658298;-69
2021/09/25 01:22:44;;;;;;;14.90;6.80;;;12.50;1.00;;;;;;4429628;28;656698;-69
2021/09/25 01:25:32;;;;;;;18.53;6.87;;;12.50;1.00;;;;;;4446060;28;656318;-69
2021/09/25 01:28:19;;;;;;;24.17;6.87;;;12.50;1.00;;;;;;4419606;28;657763;-69
2021/09/25 01:31:08;;;;;;;15.60;6.07;;;12.50;1.00;;;;;;4447601;28;656595;-69
2021/09/25 01:33:55;;;;;;;13.57;5.87;;;12.50;1.00;;;;;;4422877;28;657194;-69
2021/09/25 01:36:43;;;;;;;15.63;6.13;;;12.60;1.00;;;;;;4428323;28;656615;-69
2021/09/25 01:39:32;;;;;;;13.60;6.30;;;12.60;1.00;;;;;;4447040;28;656946;-69
2021/09/25 01:42:19;;;;;;;17.50;6.40;;;12.60;1.00;;;;;;4422897;28;657028;-69
2021/09/25 01:45:08;;;;;;;12.13;6.53;;;12.60;1.00;;;;;;4446680;28;656741;-69
2021/09/25 01:47:55;;;;;;;13.80;6.10;;;12.60;1.00;;;;;;4413555;28;657085;-69
2021/09/25 01:50:43;;;;;;;17.47;7.10;;;12.60;1.00;;;;;;4421618;28;657254;-69
2021/09/25 01:53:31;;;;;;;11.67;7.30;;;12.60;1.00;;;;;;4443307;28;657001;-69
2021/09/25 01:56:20;;;;;;;19.93;8.43;;;12.60;1.00;;;;;;4423399;28;656471;-69
2021/09/25 01:59:08;;;;;;;16.60;8.43;;;12.60;1.00;;;;;;4429982;28;656970;-69
2021/09/25 02:01:56;;;;;;;13.87;8.10;;;12.70;1.00;;;;;;4445040;28;657256;-69
2021/09/25 02:04:47;;;;;;;18.53;9.00;;;12.70;1.00;;;;;;4429626;28;656715;-69
2021/09/25 02:07:34;;;;;;;17.63;8.23;;;12.60;1.00;;;;;;4423689;28;657118;-69
2021/09/25 02:10:22;;;;;;;19.23;8.90;;;12.60;1.00;;;;;;4449053;28;656186;-69
2021/09/25 02:13:11;;;;;;;19.27;8.40;;;12.70;1.00;;;;;;4410302;28;657555;-69
2021/09/25 02:15:58;;;;;;;14.70;7.70;;;12.60;1.00;;;;;;4426729;28;656815;-69
2021/09/25 02:18:46;;;;;;;16.67;7.03;;;12.60;1.00;;;;;;4446038;28;657456;-69
2021/09/25 02:21:33;;;;;;;16.93;6.90;;;12.60;1.00;;;;;;4426124;28;656882;-69
2021/09/25 02:24:21;;;;;;;15.73;6.80;;;12.60;1.00;;;;;;4447620;28;656556;-69
2021/09/25 02:27:08;;;;;;;14.93;6.60;;;12.60;1.00;;;;;;4427289;28;656591;-69
2021/09/25 02:29:57;;;;;;;10.20;5.73;;;12.70;1.00;;;;;;4445155;28;656983;-69
2021/09/25 02:32:45;;;;;;;13.47;6.13;;;12.70;1.00;;;;;;4429938;28;657173;-69
2021/09/25 02:35:33;;;;;;;13.87;6.70;;;12.70;1.00;;;;;;4424729;28;656300;-69
2021/09/25 02:38:20;;;;;;;16.93;6.67;;;12.70;1.00;;;;;;4446259;28;656939;-69
2021/09/25 02:41:08;;;;;;;18.57;6.43;;;12.70;1.00;;;;;;4418284;28;656596;-69
2021/09/25 02:43:55;;;;;;;10.97;5.70;;;12.70;1.00;;;;;;4439895;28;657344;-69
2021/09/25 02:46:47;;;;;;;12.55;5.80;;;12.70;1.00;;;;;;4430233;28;656819;-69
2021/09/25 02:49:34;;;;;;;13.70;5.83;;;12.70;1.00;;;;;;4416443;28;657695;-69
2021/09/25 02:52:22;;;;;;;13.75;5.88;;;12.70;1.00;;;;;;4442270;28;656460;-69
2021/09/25 02:55:09;;;;;;;15.53;5.97;;;12.60;1.00;;;;;;4423532;28;658594;-69
2021/09/25 02:57:57;;;;;;;12.47;6.07;;;12.60;1.00;;;;;;4443953;28;656759;-69
2021/09/25 03:00:44;;;;;;;10.57;6.70;;;12.70;1.00;;;;;;4425415;28;657939;-69
2021/09/25 03:03:33;;;;;;;14.33;7.47;;;12.70;1.00;;;;;;4446620;28;656208;-69
2021/09/25 03:06:21;;;;;;;13.77;7.87;;;12.70;1.00;;;;;;4418070;28;657068;-69
2021/09/25 03:09:09;;;;;;;14.80;7.60;;;12.70;1.00;;;;;;4426792;28;656239;-69
2021/09/25 03:11:56;;;;;;;14.13;7.77;;;12.70;1.00;;;;;;4439594;28;657844;-69
2021/09/25 03:14:44;;;;;;;14.77;7.40;;;12.70;1.00;;;;;;4417306;28;656449;-69
2021/09/25 03:17:31;;;;;;;12.63;7.70;;;12.70;1.00;;;;;;4448948;28;657129;-69
2021/09/25 03:20:20;;;;;;;15.87;7.93;;;12.70;1.00;;;;;;4429868;28;656804;-69
2021/09/25 03:23:08;;;;;;;11.95;7.55;;;12.80;1.00;;;;;;4426757;28;656564;-69
2021/09/25 03:25:55;;;;;;;14.93;7.87;;;12.80;1.00;;;;;;4444212;28;657788;-69
2021/09/25 03:28:43;;;;;;;16.80;7.90;;;12.80;1.00;;;;;;4429535;28;656739;-69
2021/09/25 03:31:30;;;;;;;11.23;7.60;;;12.80;1.00;;;;;;4452306;28;657538;-69
2021/09/25 03:34:18;;;;;;;12.43;8.30;;;12.70;1.00;;;;;;4430070;28;656564;-69
2021/09/25 03:37:07;;;;;;;12.43;8.17;;;12.80;1.00;;;;;;4448690;28;657038;-69
2021/09/25 03:39:54;;;;;;;12.77;7.43;;;12.70;1.00;;;;;;4420689;28;657900;-69
2021/09/25 03:42:42;;;;;;;14.17;7.30;;;12.80;1.00;;;;;;4448242;28;656417;-69
2021/09/25 03:45:29;;;;;;;11.27;7.20;;;12.80;1.00;;;;;;4425705;28;657250;-69
2021/09/25 03:48:17;;;;;;;10.57;6.47;;;12.80;1.00;;;;;;4448472;28;656290;-69
2021/09/25 03:51:04;;;;;;;13.07;6.33;;;12.80;1.00;;;;;;4425734;28;657969;-70
2021/09/25 03:53:53;;;;;;;13.70;6.10;;;12.80;1.00;;;;;;4443148;28;656668;-69
2021/09/25 03:56:41;;;;;;;10.57;6.07;;;12.80;1.00;;;;;;4426594;28;656892;-69
2021/09/25 03:59:28;;;;;;;11.27;7.00;;;12.80;1.00;;;;;;4424466;28;657174;-69
2021/09/25 04:02:16;;;;;;;16.13;7.10;;;12.80;1.00;;;;;;4448518;28;656436;-69
2021/09/25 04:05:04;;;;;;;10.27;7.07;;;12.80;1.00;;;;;;4430012;28;656448;-69
2021/09/25 04:07:51;;;;;;;10.13;6.83;;;12.80;1.00;;;;;;4443227;28;656921;-69
2021/09/25 04:10:40;;;;;;;12.93;6.87;;;12.80;1.00;;;;;;4429493;28;656783;-69
2021/09/25 04:13:28;;;;;;;14.50;7.37;;;12.90;1.00;;;;;;4429970;28;656773;-69
2021/09/25 04:16:15;;;;;;;12.13;7.37;;;12.90;1.00;;;;;;4443566;28;657083;-69
2021/09/25 04:19:03;;;;;;;15.97;8.07;;;12.80;1.00;;;;;;4429002;28;656481;-69
2021/09/25 04:21:50;;;;;;;11.00;7.93;;;12.80;1.00;;;;;;4450347;28;657219;-68
2021/09/25 04:24:38;;;;;;;13.27;6.93;;;12.80;1.00;;;;;;4430296;28;656448;-68
2021/09/25 04:27:29;;;;;;;15.97;6.73;;;12.80;1.00;;;;;;4448498;28;657411;-68
2021/09/25 04:30:16;;;;;;;9.23;5.97;;;12.80;1.00;;;;;;4417669;28;656837;-68
2021/09/25 04:33:06;;;;;;;8.13;6.63;;;12.90;1.00;;;;;;4425607;28;655860;-68
2021/09/25 04:35:54;;;;;;;11.07;6.27;;;12.90;1.00;;;;;;4425479;28;655307;-68
2021/09/25 04:38:41;;;;;;;8.53;5.53;;;12.90;1.00;;;;;;4450834;28;655956;-68
2021/09/25 04:41:29;;;;;;;9.73;6.40;;;12.90;1.00;;;;;;4423798;28;655791;-68
2021/09/25 04:44:18;;;;;;;12.57;6.77;;;12.90;1.00;;;;;;4442527;28;655836;-68
2021/09/25 04:47:05;;;;;;;11.17;6.63;;;12.90;1.00;;;;;;4423752;28;656930;-68
2021/09/25 04:49:53;;;;;;;15.13;7.10;;;12.90;1.00;;;;;;4418717;28;656283;-68
2021/09/25 04:52:41;;;;;;;10.10;6.20;;;12.90;1.00;;;;;;4442812;28;657883;-68
2021/09/25 04:55:29;;;;;;;10.73;8.00;;;12.90;1.00;;;;;;4428382;28;657780;-68
2021/09/25 04:58:17;;;;;;;10.70;7.77;;;12.90;1.00;;;;;;4451023;28;656304;-68
2021/09/25 05:01:06;;;;;;;13.93;7.70;;;13.00;1.00;;;;;;4432646;28;657710;-68
2021/09/25 05:03:53;;;;;;;13.77;7.43;;;13.00;1.00;;;;;;4428792;28;656983;-68
2021/09/25 05:06:41;;;;;;;12.17;6.83;;;13.00;1.00;;;;;;4451084;28;656977;-68
2021/09/25 05:09:28;;;;;;;11.63;6.70;;;13.00;1.00;;;;;;4431937;28;656640;-68
2021/09/25 05:12:16;;;;;;;13.37;7.03;;;13.10;1.00;;;;;;4450867;28;657412;-68
2021/09/25 05:15:04;;;;;;;12.23;6.77;;;13.10;1.00;;;;;;4429436;28;657220;-68
2021/09/25 05:17:53;;;;;;;12.10;6.80;;;13.10;1.00;;;;;;4446910;28;656674;-69
2021/09/25 05:20:40;;;;;;;14.30;6.30;;;13.10;1.00;;;;;;4433195;28;656838;-68
2021/09/25 05:23:28;;;;;;;8.77;6.25;;;13.10;1.00;;;;;;4432645;28;656422;-68
2021/09/25 05:26:15;;;;;;;9.40;6.20;;;13.10;1.00;;;;;;4457085;28;656134;-68
2021/09/25 05:29:03;;;;;;;11.57;5.47;;;13.10;1.00;;;;;;4433725;28;656370;-68
2021/09/25 05:31:50;;;;;;;13.00;7.33;;;13.20;1.00;;;;;;4436789;28;658176;-68
2021/09/25 05:34:42;;;;;;;10.73;7.23;;;13.20;1.00;;;;;;4414062;28;656971;-68
2021/09/25 05:37:29;;;;;;;13.93;8.20;;;13.20;1.00;;;;;;4423082;28;657653;-68
2021/09/25 05:40:17;;;;;;;11.93;8.03;;;13.20;1.00;;;;;;4444984;28;656366;-68
2021/09/25 05:43:04;;;;;;;12.37;7.90;;;13.20;1.00;;;;;;4425462;28;658456;-68
2021/09/25 05:45:52;;;;;;;13.40;7.25;;;13.20;1.00;;;;;;4450058;28;657125;-68
2021/09/25 05:48:40;;;;;;;11.67;7.50;;;13.30;1.00;;;;;;4431381;28;656621;-68
2021/09/25 05:51:29;;;;;;;13.03;8.13;;;13.30;1.00;;;;;;4440229;28;656568;-67
2021/09/25 05:54:17;;;;;;;12.27;7.70;;;13.30;1.00;;;;;;4468935;28;656065;-69
2021/09/25 05:57:05;;;;;;;15.63;8.40;;;13.30;1.00;;;;;;4426188;28;656542;-69
2021/09/25 05:59:53;;;;;;;12.67;8.07;;;13.30;1.00;;;;;;4443488;28;657116;-69
2021/09/25 06:02:40;;;;;;;10.93;7.50;;;13.40;1.00;;;;;;4447554;28;657249;-69
2021/09/25 06:05:30;;;;;;;10.67;7.07;;;13.40;1.00;;;;;;4422805;28;656539;-69
2021/09/25 06:08:19;;;;;;;11.00;6.30;;;13.50;1.00;;;;;;4440700;28;656271;-69
2021/09/25 06:11:07;;;;;;;9.57;6.03;;;13.50;1.00;;;;;;4445395;28;656590;-68
2021/09/25 06:13:54;;;;;;;9.33;5.60;;;13.60;1.00;;;;;;4432320;28;655665;-69
2021/09/25 06:16:42;;;;;;;7.00;4.83;;;13.60;1.00;;;;;;4451121;28;655622;-69
2021/09/25 06:19:29;;;;;;;9.83;5.47;;;13.70;1.00;;;;;;4428320;28;656332;-69
2021/09/25 06:22:17;;;;;;;9.13;5.00;;;13.70;1.00;;;;;;4449334;28;655614;-68
2021/09/25 06:25:06;;;;;;;6.03;4.83;;;13.80;1.00;;;;;;4422369;28;656571;-69
2021/09/25 06:27:54;;;;;;;9.27;4.67;;;13.90;1.00;;;;;;4428178;28;656045;-69
2021/09/25 06:30:41;;;;;;;8.40;5.10;;;14.00;1.00;;;;;;4449159;28;655485;-69
2021/09/25 06:33:29;;;;;;;7.00;4.70;;;14.00;1.00;;;;;;4424186;28;655351;-69
2021/09/25 06:36:16;;;;;;;7.57;5.47;;;14.00;1.00;;;;;;4442563;28;655712;-68
2021/09/25 06:39:04;;;;;;;8.23;5.70;;;14.10;1.00;;;;;;4411633;28;656390;-69
2021/09/25 06:41:53;;;;;;;10.97;6.40;;;14.10;1.00;;;;;;4447342;28;656662;-69
2021/09/25 06:44:40;;;;;;;10.17;6.93;;;14.10;1.00;;;;;;4420806;28;657434;-69
2021/09/25 06:47:28;;;;;;;10.33;7.27;;;14.20;1.00;;;;;;4426355;28;656452;-68
2021/09/25 06:50:16;;;;;;;9.40;6.77;;;14.20;1.00;;;;;;4442851;28;657269;-69
2021/09/25 06:53:04;;;;;;;11.73;7.27;;;14.10;1.00;;;;;;4419282;28;655324;-69
2021/09/25 06:55:51;;;;;;;10.83;7.20;;;14.20;1.00;;;;;;4441763;28;656588;-70
2021/09/25 06:58:40;;;;;;;11.40;6.90;;;14.20;1.00;;;;;;4413303;28;657274;-70
2021/09/25 07:01:28;;;;;;;17.07;7.23;;;14.20;1.00;;;;;;4421445;28;656689;-70
2021/09/25 07:04:16;;;;;;;13.80;6.60;;;14.30;1.00;;;;;;4442997;28;657402;-70
2021/09/25 07:07:03;;;;;;;11.37;6.70;;;14.30;1.00;;;;;;4428682;28;656394;-70
2021/09/25 07:09:51;;;;;;;12.73;7.07;;;14.30;1.00;;;;;;4447973;28;657899;-70
2021/09/25 07:12:38;;;;;;;12.33;7.00;;;14.40;1.00;;;;;;4426133;28;656735;-70
2021/09/25 07:15:27;;;;;;;15.40;7.50;;;14.50;1.00;;;;;;4443722;28;657142;-70
2021/09/25 07:18:15;;;;;;;12.13;7.37;;;14.50;1.00;;;;;;4421937;28;658014;-70
2021/09/25 07:21:03;;;;;;;11.23;7.60;;;14.50;1.00;;;;;;4429244;28;656703;-70
2021/09/25 07:23:51;;;;;;;12.63;6.80;;;14.60;1.00;;;;;;4449148;28;657172;-70
2021/09/25 07:26:38;;;;;;;14.53;7.43;;;14.70;1.00;;;;;;4429478;28;656760;-70
2021/09/25 07:29:26;;;;;;;11.17;7.50;;;14.70;1.00;;;;;;4446877;28;657413;-70
2021/09/25 07:32:15;;;;;;;12.27;7.57;;;14.80;1.00;;;;;;4428259;28;656258;-71
2021/09/25 07:35:03;;;;;;;11.50;7.33;;;14.80;1.00;;;;;;4438639;28;656538;-70
2021/09/25 07:37:50;;;;;;;14.57;8.50;;;14.90;1.00;;;;;;4447743;28;656616;-70
2021/09/25 07:40:38;;;;;;;12.20;7.60;;;14.90;1.00;;;;;;4428711;28;656732;-70
2021/09/25 07:43:26;;;;;;;11.47;7.17;;;15.00;1.00;;;;;;4449516;28;657228;-70
2021/09/25 07:46:13;;;;;;;12.03;7.60;;;15.00;1.00;;;;;;4413654;28;656495;-70
2021/09/25 07:49:02;;;;;;;10.13;6.87;;;15.10;1.00;;;;;;4447261;28;657284;-70
2021/09/25 07:51:50;;;;;;;13.80;7.90;;;15.20;1.00;;;;;;4427444;28;657482;-70
2021/09/25 07:54:38;;;;;;;15.67;8.90;;;15.20;1.00;;;;;;4437379;28;656610;-71
2021/09/25 07:57:25;;;;;;;14.30;9.10;;;15.30;1.00;;;;;;4444798;28;657546;-70
2021/09/25 08:00:14;;;;;;;17.63;10.27;;;15.40;1.00;;;;;;4424669;28;656874;-70
2021/09/25 08:03:02;;;;;;;15.38;9.20;;;15.50;1.00;;;;;;4446108;28;657460;-70
2021/09/25 08:05:51;;;;;;;13.37;9.33;;;15.50;1.00;;;;;;4424663;28;657940;-70
2021/09/25 08:08:38;;;;;;;14.70;10.43;;;15.50;1.00;;;;;;4428746;28;656828;-70
2021/09/25 08:11:26;;;;;;;21.50;10.10;;;15.50;1.00;;;;;;4443460;28;658547;-70
2021/09/25 08:14:13;;;;;;;16.13;9.93;;;15.40;1.00;;;;;;4422626;28;658291;-70
2021/09/25 08:17:01;;;;;;;14.17;9.50;;;15.50;1.00;;;;;;4441868;28;656919;-70
2021/09/25 08:19:49;;;;;;;12.93;8.93;;;15.60;1.00;;;;;;4428414;28;656613;-70
2021/09/25 08:22:38;;;;;;;14.53;8.27;;;15.70;1.00;;;;;;4447185;28;656449;-71
2021/09/25 08:25:25;;;;;;;13.70;9.00;;;15.80;1.00;;;;;;4425469;28;657273;-70
2021/09/25 08:28:13;;;;;;;15.65;8.93;;;16.00;1.00;;;;;;4424356;28;656714;-70
2021/09/25 08:31:01;;;;;;;11.93;7.97;;;16.10;1.00;;;;;;4451500;28;657226;-70
2021/09/25 08:33:48;;;;;;;14.10;7.90;;;16.10;1.00;;;;;;4428602;28;657004;-70
2021/09/25 08:36:36;;;;;;;13.70;7.50;;;16.10;1.00;;;;;;4446813;28;657293;-69
2021/09/25 08:39:25;;;;;;;13.40;7.70;;;16.10;1.00;;;;;;4425017;28;657019;-70
2021/09/25 08:42:13;;;;;;;11.43;7.10;;;16.10;1.00;;;;;;4441386;28;657076;-70
2021/09/25 08:45:00;;;;;;;16.30;9.07;;;16.10;1.00;;;;;;4439179;28;657489;-70
2021/09/25 08:47:48;;;;;;;16.43;7.97;;;16.20;1.00;;;;;;4427726;28;656517;-70
2021/09/25 08:50:35;;;;;;;16.73;7.83;;;16.20;1.00;;;;;;4449987;28;657429;-70
2021/09/25 08:53:23;;;;;;;14.63;7.70;;;16.30;1.00;;;;;;4422346;28;656763;-70
2021/09/25 08:56:13;;;;;;;15.93;7.43;;;16.40;1.00;;;;;;4446777;28;657823;-70
2021/09/25 08:59:01;;;;;;;12.70;8.20;;;16.50;1.00;;;;;;4417076;28;657129;-70
2021/09/25 09:01:48;;;;;;;11.77;7.40;;;16.40;1.00;;;;;;4422273;28;657727;-70
2021/09/25 09:04:42;;;;;;;16.00;8.27;;;16.50;1.00;;;;;;4442291;28;657250;-70
2021/09/25 09:07:30;;;;;;;14.83;8.60;;;16.50;1.00;;;;;;4432954;28;656291;-70
2021/09/25 09:10:17;;;;;;;13.87;8.27;;;16.60;1.00;;;;;;4442490;28;656297;-70
2021/09/25 09:13:09;;;;;;;17.77;7.83;;;16.60;1.00;;;;;;4427605;28;657677;-70
2021/09/25 09:15:57;;;;;;;13.30;7.77;;;16.60;1.00;;;;;;4427790;28;656463;-70
2021/09/25 09:18:45;;;;;;;11.90;7.80;;;16.50;1.00;;;;;;4431820;28;657238;-69
2021/09/25 09:21:33;;;;;;;10.90;7.60;;;16.60;1.00;;;;;;4433862;28;656358;-70
2021/09/25 09:24:21;;;;;;;14.57;7.60;;;16.70;1.00;;;;;;4446467;28;656822;-70
2021/09/25 09:27:12;;;;;;;16.47;8.20;;;16.70;1.00;;;;;;4416054;28;656584;-70
2021/09/25 09:30:11;;;;;;;13.77;8.27;;;16.80;1.00;;;;;;4414839;28;658071;-70
2021/09/25 09:32:58;;;;;;;14.53;7.63;;;16.80;1.00;;;;;;4401162;28;656812;-70
2021/09/25 09:35:46;;;;;;;10.63;6.73;;;16.80;1.00;;;;;;4445845;28;657531;-69
2021/09/25 09:38:38;;;;;;;16.30;8.10;;;16.90;1.00;;;;;;4427746;28;656414;-70
2021/09/25 09:41:27;;;;;;;13.27;7.67;;;16.90;1.00;;;;;;4422260;28;657114;-70
2021/09/25 09:44:16;;;;;;;14.93;8.10;;;16.90;1.00;;;;;;4419503;28;657974;-70
2021/09/25 09:47:07;;;;;;;13.33;8.00;;;17.00;1.00;;;;;;4429475;28;657137;-70
2021/09/25 09:49:57;;;;;;;11.50;8.10;;;17.10;1.00;;;;;;4430104;28;656665;-70
2021/09/25 09:52:45;;;;;;;11.43;7.20;;;17.20;1.00;;;;;;4425901;28;658106;-70
2021/09/25 09:55:33;;;;;;;12.67;7.63;;;17.30;1.00;;;;;;4441015;28;656729;-70
2021/09/25 09:58:20;;;;;;;10.97;6.90;;;17.30;1.00;;;;;;4451106;28;657444;-69
2021/09/25 10:01:09;;;;;;;13.47;8.30;;;17.20;1.00;;;;;;4430839;28;656499;-69
2021/09/25 10:03:58;;;;;;;17.67;9.40;;;17.30;1.00;;;;;;4449582;28;657258;-70
2021/09/25 10:06:46;;;;;;;13.30;7.43;;;17.30;1.00;;;;;;4426610;28;657096;-70
2021/09/25 10:09:35;;;;;;;15.07;8.23;;;17.30;1.00;;;;;;4428320;28;656353;-70
2021/09/25 10:12:23;;;;;;;19.27;8.43;;;17.30;1.00;;;;;;4439068;28;657256;-69
2021/09/25 10:15:11;;;;;;;15.27;8.00;;;17.40;1.00;;;;;;4444682;28;658077;-70
2021/09/25 10:17:59;;;;;;;12.97;8.27;;;17.50;1.00;;;;;;4430637;28;656415;-69
2021/09/25 10:20:48;;;;;;;14.20;8.23;;;17.70;1.00;;;;;;4449098;28;656860;-71
2021/09/25 10:23:35;;;;;;;12.53;7.73;;;17.90;1.00;;;;;;4426900;28;657300;-70
2021/09/25 10:26:23;;;;;;;12.73;7.47;;;18.00;1.00;;;;;;4426592;28;656536;-70
2021/09/25 10:29:11;;;;;;;11.50;7.47;;;18.10;1.00;;;;;;4449136;28;657146;-69
2021/09/25 10:32:18;;;;;;;14.53;7.57;;;18.20;1.00;;;;;;4430305;28;656750;-70
2021/09/25 10:35:11;;;;;;;17.23;7.40;;;18.20;1.00;;;;;;4426075;28;657557;-69
2021/09/25 10:38:02;;;;;;;17.27;7.97;;;18.20;1.00;;;;;;4402634;28;656805;-70
2021/09/25 10:40:50;;;;;;;14.20;7.57;;;18.00;1.00;;;;;;4426202;28;657032;-70
2021/09/25 10:43:38;;;;;;;13.40;7.23;;;18.10;1.00;;;;;;4437380;28;656941;-69
2021/09/25 10:46:25;;;;;;;13.73;7.10;;;18.20;1.00;;;;;;4434191;28;656799;-70
2021/09/25 10:49:15;;;;;;;11.57;6.63;;;18.40;1.00;;;;;;4424254;28;656805;-70
2021/09/25 10:52:02;;;;;;;10.70;6.63;;;18.70;1.00;;;;;;4448163;28;656356;-70
2021/09/25 10:55:18;;;;;;;10.43;6.30;;;19.10;1.00;;;;;;4429344;28;656904;-70
2021/09/25 10:58:37;;;;;;;14.43;6.80;;;19.10;1.00;;;;;;4426192;28;656850;-70
2021/09/25 11:01:34;;;;;;;9.93;7.00;;;19.20;1.00;;;;;;4430222;28;656299;-70
2021/09/25 11:04:22;;;;;;;17.00;7.77;;;19.40;1.00;;;;;;4428265;28;656045;-70
2021/09/25 11:07:10;;;;;;;13.73;7.30;;;19.40;1.00;;;;;;4420353;28;657228;-70
2021/09/25 11:09:58;;;;;;;9.13;5.77;;;19.60;1.00;;;;;;4442680;28;657296;-70
2021/09/25 11:12:48;;;;;;;15.47;7.47;;;19.70;1.00;;;;;;4453159;28;655962;-70
2021/09/25 11:15:36;;;;;;;11.20;6.67;;;19.80;1.00;;;;;;4423383;28;656740;-70
2021/09/25 11:18:27;;;;;;;11.37;6.90;;;20.00;1.00;;;;;;4424430;28;656710;-69
2021/09/25 11:21:15;;;;;;;12.57;6.00;;;20.00;1.00;;;;;;4428011;28;657198;-70
2021/09/25 11:24:03;;;;;;;13.17;6.47;;;20.10;1.00;;;;;;4440057;28;656488;-70
2021/09/25 11:26:50;;;;;;;8.83;5.97;;;20.10;1.00;;;;;;4452001;28;656776;-70
2021/09/25 11:29:59;;;;;;;14.37;6.87;;;20.20;1.00;;;;;;4429853;28;655388;-69
2021/09/25 11:32:47;;;;;;;13.20;6.57;;;19.90;1.00;;;;;;4424009;28;656849;-70
2021/09/25 11:35:36;;;;;;;13.93;7.20;;;20.00;1.00;;;;;;4425631;28;657137;-70
2021/09/25 11:38:23;;;;;;;13.57;7.37;;;20.10;1.00;;;;;;4424084;28;656273;-70
2021/09/25 11:41:14;;;;;;;8.93;6.00;;;20.10;1.00;;;;;;4442558;28;657948;-69
2021/09/25 11:44:02;;;;;;;8.83;6.73;;;20.40;1.00;;;;;;4419890;28;656002;-70
2021/09/25 11:46:51;;;;;;;12.77;6.63;;;20.00;1.00;;;;;;4419811;28;655833;-70
2021/09/25 11:49:39;;;;;;;11.87;7.03;;;20.00;1.00;;;;;;4426794;28;656938;-70
2021/09/25 11:52:26;;;;;;;7.70;5.93;;;20.10;1.00;;;;;;4440358;28;656513;-69
2021/09/25 11:55:14;;;;;;;11.80;6.50;;;20.10;1.00;;;;;;4426098;28;655597;-69
2021/09/25 11:58:03;;;;;;;12.23;7.27;;;20.00;1.00;;;;;;4442567;28;657447;-69
2021/09/25 12:00:52;;;;;;;11.10;7.53;;;20.00;1.00;;;;;;4425525;28;657528;-70
2021/09/25 12:03:41;;;;;;;13.10;8.00;;;20.00;1.00;;;;;;4429190;28;657748;-70
2021/09/25 12:06:28;;;;;;;14.40;8.00;;;20.10;1.00;;;;;;4425851;28;656464;-69
2021/09/25 12:09:16;;;;;;;13.03;7.50;;;19.90;1.00;;;;;;4442664;28;657109;-70
2021/09/25 12:12:04;;;;;;;13.93;7.37;;;20.00;1.00;;;;;;4416878;28;656746;-69
2021/09/25 12:14:52;;;;;;;10.40;6.70;;;19.90;1.00;;;;;;4449804;28;657074;-70
2021/09/25 12:17:39;;;;;;;12.47;6.63;;;19.90;1.00;;;;;;4421294;28;657116;-69
2021/09/25 12:20:30;;;;;;;10.53;6.47;;;19.80;1.00;;;;;;4438674;28;656090;-70
2021/09/25 12:23:20;;;;;;;8.97;6.60;;;19.80;1.00;;;;;;4438698;28;656784;-69
2021/09/25 12:26:08;;;;;;;8.57;6.00;;;20.10;1.00;;;;;;4424293;28;655358;-70
2021/09/25 12:28:56;;;;;;;8.63;5.93;;;20.30;1.00;;;;;;4449427;28;655798;-69
2021/09/25 12:31:44;;;;;;;16.30;6.27;;;20.60;1.00;;;;;;4419673;28;655719;-69
2021/09/25 12:34:31;;;;;;;10.17;6.97;;;20.30;1.00;;;;;;4445866;28;656739;-69
2021/09/25 12:37:20;;;;;;;12.87;6.10;;;20.10;1.00;;;;;;4424581;28;656536;-70
2021/09/25 12:40:09;;;;;;;17.48;6.80;;;19.70;1.00;;;;;;4433818;28;656947;-69
2021/09/25 12:42:57;;;;;;;11.30;5.80;;;19.50;1.00;;;;;;4447781;28;656764;-69
2021/09/25 12:45:44;;;;;;;11.27;6.53;;;19.30;1.00;;;;;;4423065;28;656937;-70
2021/09/25 12:48:32;;;;;;;12.30;7.10;;;19.10;1.00;;;;;;4439075;28;656289;-69
2021/09/25 12:51:25;;;;;;;10.83;6.93;;;18.90;1.00;;;;;;4415159;28;657561;-69
2021/09/25 12:54:16;;;;;;;9.70;6.07;;;18.70;1.00;;;;;;4391540;28;656263;-69
2021/09/25 12:57:05;;;;;;;10.50;6.13;;;18.70;1.00;;;;;;4415920;28;655751;-70
2021/09/25 12:59:58;;;;;;;12.30;6.30;;;18.70;1.00;;;;;;4435347;28;656529;-70
2021/09/25 13:02:45;;;;;;;13.63;6.43;;;18.80;1.00;;;;;;4425746;28;657143;-69
2021/09/25 13:05:33;;;;;;;10.07;6.83;;;18.90;1.00;;;;;;4429198;28;656584;-70
2021/09/25 13:08:21;;;;;;;16.07;6.83;;;18.80;1.00;;;;;;4451147;28;657319;-70
2021/09/25 13:11:13;;;;;;;11.80;6.73;;;18.80;1.00;;;;;;4428613;28;656726;-70
2021/09/25 13:14:12;;;;;;;12.87;6.90;;;18.80;1.00;;;;;;4423262;28;657095;-70
2021/09/25 13:16:59;;;;;;;12.30;6.67;;;19.00;1.00;;;;;;4423442;28;657199;-69
2021/09/25 13:19:47;;;;;;;12.33;6.90;;;19.00;1.00;;;;;;4450398;28;656563;-70
2021/09/25 13:22:35;;;;;;;16.13;6.97;;;18.80;1.00;;;;;;4427620;28;657649;-70
2021/09/25 13:25:24;;;;;;;9.77;6.43;;;18.90;1.00;;;;;;4448747;28;656660;-69
2021/09/25 13:28:14;;;;;;;10.37;7.13;;;18.80;1.00;;;;;;4446604;28;655541;-69
2021/09/25 13:31:01;;;;;;;11.87;7.33;;;18.70;1.00;;;;;;4427116;28;657077;-70
2021/09/25 13:33:49;;;;;;;13.83;7.43;;;18.70;1.00;;;;;;4409004;28;657096;-70
2021/09/25 13:36:37;;;;;;;10.70;7.40;;;18.70;1.00;;;;;;4431748;28;656247;-70
2021/09/25 13:39:24;;;;;;;17.20;7.30;;;18.70;1.00;;;;;;4415629;28;656884;-70
2021/09/25 13:42:12;;;;;;;12.53;7.93;;;18.80;1.00;;;;;;4438059;28;656321;-70
2021/09/25 13:45:01;;;;;;;13.70;7.43;;;18.80;1.00;;;;;;4413669;28;658198;-70
2021/09/25 13:47:51;;;;;;;15.13;7.43;;;18.90;1.00;;;;;;4427058;28;656497;-70
2021/09/25 13:50:38;;;;;;;14.03;7.80;;;18.80;1.00;;;;;;4424311;28;656700;-69
2021/09/25 13:53:26;;;;;;;15.07;7.53;;;18.90;1.00;;;;;;4449988;28;656811;-70
2021/09/25 13:56:14;;;;;;;15.07;7.83;;;18.80;1.00;;;;;;4432191;28;656428;-70
2021/09/25 13:59:01;;;;;;;15.03;8.10;;;18.80;1.00;;;;;;4443185;28;656971;-70
2021/09/25 14:01:50;;;;;;;13.83;7.77;;;18.80;1.00;;;;;;4410324;28;657011;-70
2021/09/25 14:04:38;;;;;;;12.60;8.00;;;18.80;1.00;;;;;;4414458;28;656995;-70
2021/09/25 14:07:26;;;;;;;12.47;7.60;;;18.80;1.00;;;;;;4437453;28;657434;-70
2021/09/25 14:10:13;;;;;;;12.27;7.03;;;18.80;1.00;;;;;;4415064;28;657157;-70
2021/09/25 14:13:03;;;;;;;12.50;6.93;;;18.70;1.00;;;;;;4432237;28;657782;-70
2021/09/25 14:15:51;;;;;;;12.37;7.17;;;18.70;1.00;;;;;;4405507;28;657387;-70
2021/09/25 14:18:40;;;;;;;9.97;6.80;;;18.70;1.00;;;;;;4413224;28;656365;-69
2021/09/25 14:21:30;;;;;;;12.37;7.20;;;18.60;1.00;;;;;;4424739;28;655452;-70
2021/09/25 14:24:18;;;;;;;9.53;6.50;;;18.60;1.00;;;;;;4413678;28;656992;-70
2021/09/25 14:27:08;;;;;;;21.00;7.20;;;18.50;1.00;;;;;;4434342;28;655782;-69